sensor_id;sensor_type;location;lat;lon;timestamp;temperature;humidity
11991;DHT22;6055;52.522;13.446;2023-02-28T00:00:20;2.80;99.90
11991;DHT22;6055;52.522;13.446;2023-02-28T00:02:47;2.80;99.90
11991;DHT22;6055;52.522;13.446;2023-02-28T00:05:15;2.80;99.90
11991;DHT22;6055;52.522;13.446;2023-02-28T00:07:42;2.80;99.90
11991;DHT22;6055;52.522;13.446;2023-02-28T00:10:10;2.80;99.90
11991;DHT22;6055;52.522;13.446;2023-02-28T00:12:36;2.90;99.90
11991;DHT22;6055;52.522;13.446;2023-02-28T00:15:06;2.80;99.90
11991;DHT22;6055;52.522;13.446;2023-02-28T00:17:32;2.90;99.90
11991;DHT22;6055;52.522;13.446;2023-02-28T00:19:57;2.90;99.90
11991;DHT22;6055;52.522;13.446;2023-02-28T00:22:36;3.00;99.90
11991;DHT22;6055;52.522;13.446;2023-02-28T00:25:01;2.90;99.90
11991;DHT22;6055;52.522;13.446;2023-02-28T00:27:27;2.90;99.90
11991;DHT22;6055;52.522;13.446;2023-02-28T00:29:52;2.90;99.90
11991;DHT22;6055;52.522;13.446;2023-02-28T00:32:19;2.90;99.90
11991;DHT22;6055;52.522;13.446;2023-02-28T00:34:44;2.90;99.90
11991;DHT22;6055;52.522;13.446;2023-02-28T00:37:11;2.80;99.90
11991;DHT22;6055;52.522;13.446;2023-02-28T00:39:39;2.80;99.90
11991;DHT22;6055;52.522;13.446;2023-02-28T00:42:06;2.80;99.90
11991;DHT22;6055;52.522;13.446;2023-02-28T00:44:32;2.80;99.90
11991;DHT22;6055;52.522;13.446;2023-02-28T00:46:59;2.80;99.90
11991;DHT22;6055;52.522;13.446;2023-02-28T00:49:26;2.80;99.90
11991;DHT22;6055;52.522;13.446;2023-02-28T00:51:52;2.80;99.90
11991;DHT22;6055;52.522;13.446;2023-02-28T00:54:18;2.80;99.90
11991;DHT22;6055;52.522;13.446;2023-02-28T00:56:44;2.80;99.90
11991;DHT22;6055;52.522;13.446;2023-02-28T00:59:11;2.80;99.90
11991;DHT22;6055;52.522;13.446;2023-02-28T01:01:37;2.80;99.90
11991;DHT22;6055;52.522;13.446;2023-02-28T01:04:03;2.80;99.90
11991;DHT22;6055;52.522;13.446;2023-02-28T01:06:28;2.80;99.90
11991;DHT22;6055;52.522;13.446;2023-02-28T01:08:54;2.80;99.90
11991;DHT22;6055;52.522;13.446;2023-02-28T01:11:19;2.80;99.90
11991;DHT22;6055;52.522;13.446;2023-02-28T01:13:46;2.80;99.90
11991;DHT22;6055;52.522;13.446;2023-02-28T01:16:13;2.70;99.90
11991;DHT22;6055;52.522;13.446;2023-02-28T01:18:40;2.70;99.90
11991;DHT22;6055;52.522;13.446;2023-02-28T01:21:11;2.70;99.90
11991;DHT22;6055;52.522;13.446;2023-02-28T01:23:38;2.70;99.90
11991;DHT22;6055;52.522;13.446;2023-02-28T01:28:31;2.60;99.90
11991;DHT22;6055;52.522;13.446;2023-02-28T01:30:56;2.70;99.90
11991;DHT22;6055;52.522;13.446;2023-02-28T01:33:22;2.70;99.90
11991;DHT22;6055;52.522;13.446;2023-02-28T01:35:47;2.60;99.90
11991;DHT22;6055;52.522;13.446;2023-02-28T01:38:13;2.60;99.90
11991;DHT22;6055;52.522;13.446;2023-02-28T01:40:39;2.60;99.90
11991;DHT22;6055;52.522;13.446;2023-02-28T01:43:16;2.60;99.90
11991;DHT22;6055;52.522;13.446;2023-02-28T01:45:44;2.60;99.90
11991;DHT22;6055;52.522;13.446;2023-02-28T01:48:09;2.60;99.90
11991;DHT22;6055;52.522;13.446;2023-02-28T01:50:39;2.50;99.90
11991;DHT22;6055;52.522;13.446;2023-02-28T01:53:08;2.40;99.90
11991;DHT22;6055;52.522;13.446;2023-02-28T01:55:36;2.40;99.90
11991;DHT22;6055;52.522;13.446;2023-02-28T01:58:04;2.40;99.90
11991;DHT22;6055;52.522;13.446;2023-02-28T02:00:31;2.30;99.90
11991;DHT22;6055;52.522;13.446;2023-02-28T02:03:06;2.30;99.90
11991;DHT22;6055;52.522;13.446;2023-02-28T02:05:39;2.20;99.90
11991;DHT22;6055;52.522;13.446;2023-02-28T02:08:08;2.20;99.90
11991;DHT22;6055;52.522;13.446;2023-02-28T02:10:48;2.10;99.90
11991;DHT22;6055;52.522;13.446;2023-02-28T02:13:40;2.10;99.90
11991;DHT22;6055;52.522;13.446;2023-02-28T02:19:15;2.00;99.90
11991;DHT22;6055;52.522;13.446;2023-02-28T02:24:55;1.90;99.90
11991;DHT22;6055;52.522;13.446;2023-02-28T02:27:38;1.90;99.90
11991;DHT22;6055;52.522;13.446;2023-02-28T02:30:24;1.90;99.90
11991;DHT22;6055;52.522;13.446;2023-02-28T02:33:06;1.90;99.90
11991;DHT22;6055;52.522;13.446;2023-02-28T02:36:00;1.80;99.90
11991;DHT22;6055;52.522;13.446;2023-02-28T02:38:46;1.80;99.90
11991;DHT22;6055;52.522;13.446;2023-02-28T02:41:18;1.70;99.90
11991;DHT22;6055;52.522;13.446;2023-02-28T02:43:54;1.70;99.90
11991;DHT22;6055;52.522;13.446;2023-02-28T02:46:35;1.60;99.90
11991;DHT22;6055;52.522;13.446;2023-02-28T02:49:06;1.60;99.90
11991;DHT22;6055;52.522;13.446;2023-02-28T02:51:34;1.60;99.90
11991;DHT22;6055;52.522;13.446;2023-02-28T02:56:33;1.60;99.90
11991;DHT22;6055;52.522;13.446;2023-02-28T02:59:03;1.60;99.90
11991;DHT22;6055;52.522;13.446;2023-02-28T03:01:31;1.50;99.90
11991;DHT22;6055;52.522;13.446;2023-02-28T03:03:59;1.50;99.90
11991;DHT22;6055;52.522;13.446;2023-02-28T03:06:26;1.50;99.90
11991;DHT22;6055;52.522;13.446;2023-02-28T03:08:52;1.50;99.90
11991;DHT22;6055;52.522;13.446;2023-02-28T03:11:18;1.50;99.90
11991;DHT22;6055;52.522;13.446;2023-02-28T03:16:42;1.40;99.90
11991;DHT22;6055;52.522;13.446;2023-02-28T03:24:55;1.40;99.90
11991;DHT22;6055;52.522;13.446;2023-02-28T03:27:30;1.40;99.90
11991;DHT22;6055;52.522;13.446;2023-02-28T03:30:03;1.30;99.90
11991;DHT22;6055;52.522;13.446;2023-02-28T03:32:36;1.30;99.90
11991;DHT22;6055;52.522;13.446;2023-02-28T03:35:14;1.30;99.90
11991;DHT22;6055;52.522;13.446;2023-02-28T03:37:49;1.30;99.90
11991;DHT22;6055;52.522;13.446;2023-02-28T03:40:17;1.30;99.90
11991;DHT22;6055;52.522;13.446;2023-02-28T03:42:48;1.30;99.90
11991;DHT22;6055;52.522;13.446;2023-02-28T03:45:19;1.20;99.90
11991;DHT22;6055;52.522;13.446;2023-02-28T03:47:57;1.20;99.90
11991;DHT22;6055;52.522;13.446;2023-02-28T03:50:34;1.20;99.90
11991;DHT22;6055;52.522;13.446;2023-02-28T03:53:08;1.20;99.90
11991;DHT22;6055;52.522;13.446;2023-02-28T03:55:43;1.20;99.90
11991;DHT22;6055;52.522;13.446;2023-02-28T03:58:22;1.20;99.90
11991;DHT22;6055;52.522;13.446;2023-02-28T04:00:55;1.20;99.90
11991;DHT22;6055;52.522;13.446;2023-02-28T04:03:22;1.20;99.90
11991;DHT22;6055;52.522;13.446;2023-02-28T04:05:53;1.10;99.90
11991;DHT22;6055;52.522;13.446;2023-02-28T04:08:19;1.10;99.90
11991;DHT22;6055;52.522;13.446;2023-02-28T04:10:54;1.10;99.90
11991;DHT22;6055;52.522;13.446;2023-02-28T04:13:23;1.10;99.90
11991;DHT22;6055;52.522;13.446;2023-02-28T04:15:48;1.00;99.90
11991;DHT22;6055;52.522;13.446;2023-02-28T04:18:14;1.00;99.90
11991;DHT22;6055;52.522;13.446;2023-02-28T04:20:39;1.00;99.90
11991;DHT22;6055;52.522;13.446;2023-02-28T04:23:04;1.00;99.90
11991;DHT22;6055;52.522;13.446;2023-02-28T04:25:30;1.00;99.90
11991;DHT22;6055;52.522;13.446;2023-02-28T04:27:55;1.00;99.90
11991;DHT22;6055;52.522;13.446;2023-02-28T04:30:21;1.00;99.90
11991;DHT22;6055;52.522;13.446;2023-02-28T04:32:46;1.00;99.90
11991;DHT22;6055;52.522;13.446;2023-02-28T04:35:12;1.00;99.90
11991;DHT22;6055;52.522;13.446;2023-02-28T04:37:37;1.00;99.90
11991;DHT22;6055;52.522;13.446;2023-02-28T04:40:06;0.90;99.90
11991;DHT22;6055;52.522;13.446;2023-02-28T04:42:31;1.00;99.90
11991;DHT22;6055;52.522;13.446;2023-02-28T04:45:04;1.00;99.90
11991;DHT22;6055;52.522;13.446;2023-02-28T04:47:37;0.90;99.90
11991;DHT22;6055;52.522;13.446;2023-02-28T04:50:06;0.90;99.90
11991;DHT22;6055;52.522;13.446;2023-02-28T04:52:32;0.90;99.90
11991;DHT22;6055;52.522;13.446;2023-02-28T04:55:00;0.90;99.90
11991;DHT22;6055;52.522;13.446;2023-02-28T04:57:25;0.90;99.90
11991;DHT22;6055;52.522;13.446;2023-02-28T04:59:51;0.80;99.90
11991;DHT22;6055;52.522;13.446;2023-02-28T05:02:16;0.80;99.90
11991;DHT22;6055;52.522;13.446;2023-02-28T05:04:42;0.80;99.90
11991;DHT22;6055;52.522;13.446;2023-02-28T05:07:07;0.80;99.90
11991;DHT22;6055;52.522;13.446;2023-02-28T05:09:33;0.70;99.90
11991;DHT22;6055;52.522;13.446;2023-02-28T05:11:58;0.70;99.90
11991;DHT22;6055;52.522;13.446;2023-02-28T05:14:24;0.80;99.90
11991;DHT22;6055;52.522;13.446;2023-02-28T05:16:49;0.70;99.90
11991;DHT22;6055;52.522;13.446;2023-02-28T05:19:15;0.70;99.90
11991;DHT22;6055;52.522;13.446;2023-02-28T05:21:52;0.70;99.90
11991;DHT22;6055;52.522;13.446;2023-02-28T05:24:18;0.70;99.90
11991;DHT22;6055;52.522;13.446;2023-02-28T05:26:49;0.70;99.90
11991;DHT22;6055;52.522;13.446;2023-02-28T05:29:15;0.60;99.90
11991;DHT22;6055;52.522;13.446;2023-02-28T05:31:41;0.60;99.90
11991;DHT22;6055;52.522;13.446;2023-02-28T05:34:06;0.60;99.90
11991;DHT22;6055;52.522;13.446;2023-02-28T05:36:36;0.60;99.90
11991;DHT22;6055;52.522;13.446;2023-02-28T05:39:02;0.60;99.90
11991;DHT22;6055;52.522;13.446;2023-02-28T05:41:28;0.60;99.90
11991;DHT22;6055;52.522;13.446;2023-02-28T05:43:54;0.50;99.90
11991;DHT22;6055;52.522;13.446;2023-02-28T05:46:19;0.60;99.90
11991;DHT22;6055;52.522;13.446;2023-02-28T05:48:47;0.50;99.90
11991;DHT22;6055;52.522;13.446;2023-02-28T05:51:12;0.50;99.90
11991;DHT22;6055;52.522;13.446;2023-02-28T05:53:38;0.60;99.90
11991;DHT22;6055;52.522;13.446;2023-02-28T05:56:04;0.50;99.90
11991;DHT22;6055;52.522;13.446;2023-02-28T05:58:30;0.50;99.90
11991;DHT22;6055;52.522;13.446;2023-02-28T06:01:00;0.50;99.90
11991;DHT22;6055;52.522;13.446;2023-02-28T06:03:26;0.50;99.90
11991;DHT22;6055;52.522;13.446;2023-02-28T06:05:52;0.50;99.90
11991;DHT22;6055;52.522;13.446;2023-02-28T06:08:18;0.60;99.90
11991;DHT22;6055;52.522;13.446;2023-02-28T06:10:44;0.60;99.90
11991;DHT22;6055;52.522;13.446;2023-02-28T06:13:12;0.60;99.90
11991;DHT22;6055;52.522;13.446;2023-02-28T06:15:38;0.60;99.90
11991;DHT22;6055;52.522;13.446;2023-02-28T06:18:03;0.60;99.90
11991;DHT22;6055;52.522;13.446;2023-02-28T06:20:29;0.60;99.90
11991;DHT22;6055;52.522;13.446;2023-02-28T06:22:58;0.60;99.90
11991;DHT22;6055;52.522;13.446;2023-02-28T06:25:25;0.60;99.90
11991;DHT22;6055;52.522;13.446;2023-02-28T06:27:51;0.70;99.90
11991;DHT22;6055;52.522;13.446;2023-02-28T06:30:19;0.70;99.90
11991;DHT22;6055;52.522;13.446;2023-02-28T06:32:49;0.70;99.90
11991;DHT22;6055;52.522;13.446;2023-02-28T06:35:14;0.70;99.90
11991;DHT22;6055;52.522;13.446;2023-02-28T06:37:40;0.80;99.90
11991;DHT22;6055;52.522;13.446;2023-02-28T06:40:06;0.80;99.90
11991;DHT22;6055;52.522;13.446;2023-02-28T06:42:32;0.80;99.90
11991;DHT22;6055;52.522;13.446;2023-02-28T06:44:57;0.80;99.90
11991;DHT22;6055;52.522;13.446;2023-02-28T06:47:23;0.90;99.90
11991;DHT22;6055;52.522;13.446;2023-02-28T06:49:49;0.90;99.90
11991;DHT22;6055;52.522;13.446;2023-02-28T06:52:15;0.90;99.90
11991;DHT22;6055;52.522;13.446;2023-02-28T06:54:41;1.00;99.90
11991;DHT22;6055;52.522;13.446;2023-02-28T06:57:07;1.00;99.90
11991;DHT22;6055;52.522;13.446;2023-02-28T06:59:32;1.10;99.90
11991;DHT22;6055;52.522;13.446;2023-02-28T07:01:58;1.10;99.90
11991;DHT22;6055;52.522;13.446;2023-02-28T07:04:24;1.20;99.90
11991;DHT22;6055;52.522;13.446;2023-02-28T07:06:49;1.10;99.90
11991;DHT22;6055;52.522;13.446;2023-02-28T07:09:15;1.20;99.90
11991;DHT22;6055;52.522;13.446;2023-02-28T07:11:40;1.20;99.90
11991;DHT22;6055;52.522;13.446;2023-02-28T07:14:07;1.20;99.90
11991;DHT22;6055;52.522;13.446;2023-02-28T07:16:32;1.20;99.90
11991;DHT22;6055;52.522;13.446;2023-02-28T07:18:58;1.30;99.90
11991;DHT22;6055;52.522;13.446;2023-02-28T07:21:23;1.30;99.90
11991;DHT22;6055;52.522;13.446;2023-02-28T07:23:49;1.40;99.90
11991;DHT22;6055;52.522;13.446;2023-02-28T07:26:17;1.40;99.90
11991;DHT22;6055;52.522;13.446;2023-02-28T07:28:44;1.40;99.90
11991;DHT22;6055;52.522;13.446;2023-02-28T07:31:10;1.40;99.90
11991;DHT22;6055;52.522;13.446;2023-02-28T07:33:36;1.50;99.90
11991;DHT22;6055;52.522;13.446;2023-02-28T07:36:13;1.50;99.90
11991;DHT22;6055;52.522;13.446;2023-02-28T07:38:43;1.50;99.90
11991;DHT22;6055;52.522;13.446;2023-02-28T07:41:09;1.50;99.90
11991;DHT22;6055;52.522;13.446;2023-02-28T07:43:35;1.60;99.90
11991;DHT22;6055;52.522;13.446;2023-02-28T07:46:03;1.60;99.90
11991;DHT22;6055;52.522;13.446;2023-02-28T07:48:28;1.70;99.90
11991;DHT22;6055;52.522;13.446;2023-02-28T07:50:56;1.70;99.90
11991;DHT22;6055;52.522;13.446;2023-02-28T07:53:21;1.70;99.90
11991;DHT22;6055;52.522;13.446;2023-02-28T07:55:47;1.70;99.90
11991;DHT22;6055;52.522;13.446;2023-02-28T07:58:13;1.80;99.90
11991;DHT22;6055;52.522;13.446;2023-02-28T08:00:39;1.80;99.90
11991;DHT22;6055;52.522;13.446;2023-02-28T08:03:04;1.80;99.90
11991;DHT22;6055;52.522;13.446;2023-02-28T08:05:30;1.90;99.90
11991;DHT22;6055;52.522;13.446;2023-02-28T08:07:56;1.90;99.90
11991;DHT22;6055;52.522;13.446;2023-02-28T08:10:22;1.90;99.90
11991;DHT22;6055;52.522;13.446;2023-02-28T08:12:49;1.90;99.90
11991;DHT22;6055;52.522;13.446;2023-02-28T08:15:14;2.00;99.90
11991;DHT22;6055;52.522;13.446;2023-02-28T08:17:40;2.00;99.90
11991;DHT22;6055;52.522;13.446;2023-02-28T08:20:06;2.10;99.90
11991;DHT22;6055;52.522;13.446;2023-02-28T08:22:31;2.10;99.90
11991;DHT22;6055;52.522;13.446;2023-02-28T08:24:57;2.10;99.90
11991;DHT22;6055;52.522;13.446;2023-02-28T08:27:22;2.20;99.90
11991;DHT22;6055;52.522;13.446;2023-02-28T08:29:48;2.20;99.90
11991;DHT22;6055;52.522;13.446;2023-02-28T08:32:13;2.20;99.90
11991;DHT22;6055;52.522;13.446;2023-02-28T08:34:40;2.30;99.90
11991;DHT22;6055;52.522;13.446;2023-02-28T08:37:06;2.30;99.90
11991;DHT22;6055;52.522;13.446;2023-02-28T08:39:34;2.30;99.90
11991;DHT22;6055;52.522;13.446;2023-02-28T08:42:02;2.40;99.90
11991;DHT22;6055;52.522;13.446;2023-02-28T08:44:28;2.40;99.90
11991;DHT22;6055;52.522;13.446;2023-02-28T08:47:00;2.40;99.90
11991;DHT22;6055;52.522;13.446;2023-02-28T08:49:25;2.50;99.30
11991;DHT22;6055;52.522;13.446;2023-02-28T08:51:51;2.60;98.90
11991;DHT22;6055;52.522;13.446;2023-02-28T08:54:19;2.60;98.50
11991;DHT22;6055;52.522;13.446;2023-02-28T08:56:45;2.60;98.00
11991;DHT22;6055;52.522;13.446;2023-02-28T08:59:12;2.70;98.20
11991;DHT22;6055;52.522;13.446;2023-02-28T09:01:38;2.80;96.90
11991;DHT22;6055;52.522;13.446;2023-02-28T09:04:06;2.90;96.50
11991;DHT22;6055;52.522;13.446;2023-02-28T09:06:33;2.80;96.20
11991;DHT22;6055;52.522;13.446;2023-02-28T09:08:59;2.80;96.40
11991;DHT22;6055;52.522;13.446;2023-02-28T09:11:27;2.90;95.80
11991;DHT22;6055;52.522;13.446;2023-02-28T09:13:52;2.90;95.80
11991;DHT22;6055;52.522;13.446;2023-02-28T09:16:18;2.90;96.00
11991;DHT22;6055;52.522;13.446;2023-02-28T09:18:44;2.90;95.70
11991;DHT22;6055;52.522;13.446;2023-02-28T09:21:12;3.00;95.10
11991;DHT22;6055;52.522;13.446;2023-02-28T09:23:44;3.10;94.60
11991;DHT22;6055;52.522;13.446;2023-02-28T09:26:19;3.10;94.30
11991;DHT22;6055;52.522;13.446;2023-02-28T09:28:45;3.10;94.20
11991;DHT22;6055;52.522;13.446;2023-02-28T09:31:16;3.10;93.70
11991;DHT22;6055;52.522;13.446;2023-02-28T09:33:42;3.20;94.00
11991;DHT22;6055;52.522;13.446;2023-02-28T09:36:08;3.10;93.90
11991;DHT22;6055;52.522;13.446;2023-02-28T09:38:34;3.10;93.90
11991;DHT22;6055;52.522;13.446;2023-02-28T09:41:02;3.10;94.20
11991;DHT22;6055;52.522;13.446;2023-02-28T09:43:33;3.10;93.90
11991;DHT22;6055;52.522;13.446;2023-02-28T09:46:14;3.10;94.30
11991;DHT22;6055;52.522;13.446;2023-02-28T09:48:45;3.10;94.60
11991;DHT22;6055;52.522;13.446;2023-02-28T09:51:40;3.20;94.70
11991;DHT22;6055;52.522;13.446;2023-02-28T09:54:18;3.20;94.30
11991;DHT22;6055;52.522;13.446;2023-02-28T09:56:49;3.40;93.90
11991;DHT22;6055;52.522;13.446;2023-02-28T09:59:44;3.40;94.20
11991;DHT22;6055;52.522;13.446;2023-02-28T10:05:21;3.50;94.30
11991;DHT22;6055;52.522;13.446;2023-02-28T10:07:55;3.50;93.40
11991;DHT22;6055;52.522;13.446;2023-02-28T10:10:44;3.60;93.70
11991;DHT22;6055;52.522;13.446;2023-02-28T10:13:36;3.60;93.40
11991;DHT22;6055;52.522;13.446;2023-02-28T10:16:14;3.70;93.60
11991;DHT22;6055;52.522;13.446;2023-02-28T10:18:47;3.70;93.60
11991;DHT22;6055;52.522;13.446;2023-02-28T10:21:43;3.70;93.40
11991;DHT22;6055;52.522;13.446;2023-02-28T10:24:21;3.80;93.20
11991;DHT22;6055;52.522;13.446;2023-02-28T10:26:48;3.90;92.80
11991;DHT22;6055;52.522;13.446;2023-02-28T10:29:14;3.90;92.50
11991;DHT22;6055;52.522;13.446;2023-02-28T10:31:40;3.90;92.10
11991;DHT22;6055;52.522;13.446;2023-02-28T10:34:06;3.90;91.60
11991;DHT22;6055;52.522;13.446;2023-02-28T10:36:32;3.90;91.80
11991;DHT22;6055;52.522;13.446;2023-02-28T10:38:58;4.00;92.20
11991;DHT22;6055;52.522;13.446;2023-02-28T10:41:30;4.10;92.10
11991;DHT22;6055;52.522;13.446;2023-02-28T10:44:20;4.10;91.90
11991;DHT22;6055;52.522;13.446;2023-02-28T10:46:46;4.10;91.80
11991;DHT22;6055;52.522;13.446;2023-02-28T10:49:24;4.10;92.00
11991;DHT22;6055;52.522;13.446;2023-02-28T10:52:00;4.10;91.60
11991;DHT22;6055;52.522;13.446;2023-02-28T10:54:32;4.20;91.50
11991;DHT22;6055;52.522;13.446;2023-02-28T10:57:20;4.10;91.60
11991;DHT22;6055;52.522;13.446;2023-02-28T10:59:51;4.20;91.50
11991;DHT22;6055;52.522;13.446;2023-02-28T11:02:37;4.20;91.50
11991;DHT22;6055;52.522;13.446;2023-02-28T11:05:32;4.20;91.50
11991;DHT22;6055;52.522;13.446;2023-02-28T11:08:17;4.30;91.20
11991;DHT22;6055;52.522;13.446;2023-02-28T11:10:48;4.20;91.30
11991;DHT22;6055;52.522;13.446;2023-02-28T11:13:36;4.30;91.30
11991;DHT22;6055;52.522;13.446;2023-02-28T11:16:09;4.40;91.30
11991;DHT22;6055;52.522;13.446;2023-02-28T11:18:52;4.50;91.30
11991;DHT22;6055;52.522;13.446;2023-02-28T11:21:31;4.50;91.10
11991;DHT22;6055;52.522;13.446;2023-02-28T11:24:13;4.60;91.40
11991;DHT22;6055;52.522;13.446;2023-02-28T11:26:46;4.70;90.70
11991;DHT22;6055;52.522;13.446;2023-02-28T11:29:23;4.70;90.90
11991;DHT22;6055;52.522;13.446;2023-02-28T11:32:02;4.80;90.80
11991;DHT22;6055;52.522;13.446;2023-02-28T11:34:28;4.90;90.70
11991;DHT22;6055;52.522;13.446;2023-02-28T11:36:56;5.10;90.40
11991;DHT22;6055;52.522;13.446;2023-02-28T11:39:23;5.20;90.50
11991;DHT22;6055;52.522;13.446;2023-02-28T11:46:58;7.80;84.40
11991;DHT22;6055;52.522;13.446;2023-02-28T11:49:45;9.80;80.70
11991;DHT22;6055;52.522;13.446;2023-02-28T11:52:40;11.20;73.20
11991;DHT22;6055;52.522;13.446;2023-02-28T11:55:13;12.60;68.40
11991;DHT22;6055;52.522;13.446;2023-02-28T11:58:21;13.40;65.10
11991;DHT22;6055;52.522;13.446;2023-02-28T12:01:07;14.20;61.60
11991;DHT22;6055;52.522;13.446;2023-02-28T12:03:39;14.60;58.60
11991;DHT22;6055;52.522;13.446;2023-02-28T12:06:35;14.70;57.50
11991;DHT22;6055;52.522;13.446;2023-02-28T12:11:41;15.40;54.90
11991;DHT22;6055;52.522;13.446;2023-02-28T12:14:55;15.80;53.40
11991;DHT22;6055;52.522;13.446;2023-02-28T12:17:43;15.20;53.00
11991;DHT22;6055;52.522;13.446;2023-02-28T12:20:40;15.10;53.40
11991;DHT22;6055;52.522;13.446;2023-02-28T12:26:39;16.00;49.70
11991;DHT22;6055;52.522;13.446;2023-02-28T12:29:32;15.30;50.30
11991;DHT22;6055;52.522;13.446;2023-02-28T12:32:04;15.00;50.40
11991;DHT22;6055;52.522;13.446;2023-02-28T12:34:37;14.90;50.70
11991;DHT22;6055;52.522;13.446;2023-02-28T12:37:09;15.00;50.00
11991;DHT22;6055;52.522;13.446;2023-02-28T12:39:41;15.40;49.70
11991;DHT22;6055;52.522;13.446;2023-02-28T12:42:30;16.00;48.50
11991;DHT22;6055;52.522;13.446;2023-02-28T12:45:00;15.30;47.60
11991;DHT22;6055;52.522;13.446;2023-02-28T12:47:26;14.80;48.00
11991;DHT22;6055;52.522;13.446;2023-02-28T12:50:07;14.70;48.20
11991;DHT22;6055;52.522;13.446;2023-02-28T12:58:27;14.70;48.10
11991;DHT22;6055;52.522;13.446;2023-02-28T13:04:08;14.70;47.90
11991;DHT22;6055;52.522;13.446;2023-02-28T13:06:57;14.60;49.00
11991;DHT22;6055;52.522;13.446;2023-02-28T13:09:25;14.80;48.50
11991;DHT22;6055;52.522;13.446;2023-02-28T13:11:52;14.70;48.20
11991;DHT22;6055;52.522;13.446;2023-02-28T13:14:28;14.80;48.70
11991;DHT22;6055;52.522;13.446;2023-02-28T13:19:46;15.20;47.90
11991;DHT22;6055;52.522;13.446;2023-02-28T13:24:55;14.50;47.10
11991;DHT22;6055;52.522;13.446;2023-02-28T13:29:49;14.20;48.20
11991;DHT22;6055;52.522;13.446;2023-02-28T13:39:52;13.70;49.50
11991;DHT22;6055;52.522;13.446;2023-02-28T13:47:33;13.60;49.10
11991;DHT22;6055;52.522;13.446;2023-02-28T13:55:45;13.20;49.60
11991;DHT22;6055;52.522;13.446;2023-02-28T13:58:24;13.20;48.80
11991;DHT22;6055;52.522;13.446;2023-02-28T14:01:20;13.30;48.40
11991;DHT22;6055;52.522;13.446;2023-02-28T14:06:53;12.70;48.80
11991;DHT22;6055;52.522;13.446;2023-02-28T14:09:31;12.60;48.70
11991;DHT22;6055;52.522;13.446;2023-02-28T14:15:03;12.30;50.10
11991;DHT22;6055;52.522;13.446;2023-02-28T14:17:31;12.30;49.50
11991;DHT22;6055;52.522;13.446;2023-02-28T14:19:57;12.50;49.80
11991;DHT22;6055;52.522;13.446;2023-02-28T14:22:54;12.60;49.90
11991;DHT22;6055;52.522;13.446;2023-02-28T14:25:37;12.60;50.20
11991;DHT22;6055;52.522;13.446;2023-02-28T14:28:43;12.50;49.80
11991;DHT22;6055;52.522;13.446;2023-02-28T14:31:15;13.10;49.60
11991;DHT22;6055;52.522;13.446;2023-02-28T14:33:57;13.60;48.80
11991;DHT22;6055;52.522;13.446;2023-02-28T14:36:30;13.70;49.30
11991;DHT22;6055;52.522;13.446;2023-02-28T14:39:06;13.90;48.20
11991;DHT22;6055;52.522;13.446;2023-02-28T14:41:40;13.90;47.70
11991;DHT22;6055;52.522;13.446;2023-02-28T14:44:21;13.70;47.90
11991;DHT22;6055;52.522;13.446;2023-02-28T14:46:53;13.40;48.40
11991;DHT22;6055;52.522;13.446;2023-02-28T14:49:26;13.30;48.40
11991;DHT22;6055;52.522;13.446;2023-02-28T14:52:15;13.10;48.70
11991;DHT22;6055;52.522;13.446;2023-02-28T14:54:43;13.10;49.10
11991;DHT22;6055;52.522;13.446;2023-02-28T14:57:27;13.00;48.70
11991;DHT22;6055;52.522;13.446;2023-02-28T15:00:27;12.60;48.90
11991;DHT22;6055;52.522;13.446;2023-02-28T15:02:54;12.30;50.70
11991;DHT22;6055;52.522;13.446;2023-02-28T15:08:17;12.10;51.30
11991;DHT22;6055;52.522;13.446;2023-02-28T15:13:16;11.50;51.20
11991;DHT22;6055;52.522;13.446;2023-02-28T15:16:01;10.80;51.40
11991;DHT22;6055;52.522;13.446;2023-02-28T15:18:50;10.00;53.20
11991;DHT22;6055;52.522;13.446;2023-02-28T15:21:25;9.70;54.20
11991;DHT22;6055;52.522;13.446;2023-02-28T15:23:59;9.50;55.30
11991;DHT22;6055;52.522;13.446;2023-02-28T15:26:37;9.40;55.80
11991;DHT22;6055;52.522;13.446;2023-02-28T15:29:11;9.30;56.20
11991;DHT22;6055;52.522;13.446;2023-02-28T15:32:05;9.20;57.20
11991;DHT22;6055;52.522;13.446;2023-02-28T15:34:37;9.20;57.10
11991;DHT22;6055;52.522;13.446;2023-02-28T15:40:14;9.00;57.30
11991;DHT22;6055;52.522;13.446;2023-02-28T15:42:40;8.90;57.70
11991;DHT22;6055;52.522;13.446;2023-02-28T15:45:37;8.80;58.10
11991;DHT22;6055;52.522;13.446;2023-02-28T15:48:14;8.60;58.80
11991;DHT22;6055;52.522;13.446;2023-02-28T15:50:41;8.50;59.60
11991;DHT22;6055;52.522;13.446;2023-02-28T15:53:16;8.40;60.10
11991;DHT22;6055;52.522;13.446;2023-02-28T15:55:43;8.40;59.40
11991;DHT22;6055;52.522;13.446;2023-02-28T15:58:11;8.30;60.70
11991;DHT22;6055;52.522;13.446;2023-02-28T16:00:38;8.10;60.00
11991;DHT22;6055;52.522;13.446;2023-02-28T16:03:24;8.10;60.60
11991;DHT22;6055;52.522;13.446;2023-02-28T16:06:53;8.00;61.20
11991;DHT22;6055;52.522;13.446;2023-02-28T16:08:53;7.90;60.80
11991;DHT22;6055;52.522;13.446;2023-02-28T16:11:22;7.70;61.50
11991;DHT22;6055;52.522;13.446;2023-02-28T16:13:48;7.70;62.30
11991;DHT22;6055;52.522;13.446;2023-02-28T16:16:20;7.70;62.50
11991;DHT22;6055;52.522;13.446;2023-02-28T16:18:45;7.50;62.70
11991;DHT22;6055;52.522;13.446;2023-02-28T16:21:11;7.40;63.10
11991;DHT22;6055;52.522;13.446;2023-02-28T16:23:36;7.30;63.10
11991;DHT22;6055;52.522;13.446;2023-02-28T16:26:03;7.20;63.70
11991;DHT22;6055;52.522;13.446;2023-02-28T16:28:33;7.10;64.40
11991;DHT22;6055;52.522;13.446;2023-02-28T16:31:05;7.10;64.30
11991;DHT22;6055;52.522;13.446;2023-02-28T16:33:32;6.90;64.60
11991;DHT22;6055;52.522;13.446;2023-02-28T16:35:58;6.70;65.30
11991;DHT22;6055;52.522;13.446;2023-02-28T16:38:23;6.50;66.30
11991;DHT22;6055;52.522;13.446;2023-02-28T16:40:50;6.40;66.20
11991;DHT22;6055;52.522;13.446;2023-02-28T16:43:19;6.30;66.60
11991;DHT22;6055;52.522;13.446;2023-02-28T16:45:46;6.20;66.30
11991;DHT22;6055;52.522;13.446;2023-02-28T16:48:14;6.00;67.20
11991;DHT22;6055;52.522;13.446;2023-02-28T16:50:41;5.80;67.80
11991;DHT22;6055;52.522;13.446;2023-02-28T16:53:07;5.70;68.50
11991;DHT22;6055;52.522;13.446;2023-02-28T16:55:34;5.60;68.70
11991;DHT22;6055;52.522;13.446;2023-02-28T16:58:01;5.50;70.10
11991;DHT22;6055;52.522;13.446;2023-02-28T17:00:28;5.40;70.40
11991;DHT22;6055;52.522;13.446;2023-02-28T17:02:54;5.30;70.40
11991;DHT22;6055;52.522;13.446;2023-02-28T17:05:21;5.20;70.80
11991;DHT22;6055;52.522;13.446;2023-02-28T17:07:47;5.10;71.50
11991;DHT22;6055;52.522;13.446;2023-02-28T17:10:21;5.00;72.60
11991;DHT22;6055;52.522;13.446;2023-02-28T17:12:48;5.00;73.20
11991;DHT22;6055;52.522;13.446;2023-02-28T17:15:14;4.90;73.90
11991;DHT22;6055;52.522;13.446;2023-02-28T17:17:41;4.90;74.50
11991;DHT22;6055;52.522;13.446;2023-02-28T17:20:14;4.90;74.00
11991;DHT22;6055;52.522;13.446;2023-02-28T17:22:40;4.80;74.20
11991;DHT22;6055;52.522;13.446;2023-02-28T17:25:07;4.80;74.70
11991;DHT22;6055;52.522;13.446;2023-02-28T17:27:32;4.70;75.20
11991;DHT22;6055;52.522;13.446;2023-02-28T17:29:58;4.70;76.10
11991;DHT22;6055;52.522;13.446;2023-02-28T17:32:23;4.60;77.00